Time;durP1;ratioP1;P1;durP2;ratioP2;P2;SDS_P1;SDS_P2;PMS_P1;PMS_P2;Temp;Humidity;BMP_temperature;BMP_pressure;BME280_temperature;BME280_humidity;BME280_pressure;Samples;Min_cycle;Max_cycle;Signal;HPM_P1;HPM_P2
2022/11/05 00:10:55;;;;;;;16.23;3.70;;;5.30;99.90;;;;;;5005079;28;20106;-57
2022/11/05 00:19:07;;;;;;;8.32;3.25;;;;;;;;;;5002085;28;20052;-56
2022/11/05 00:27:04;;;;;;;14.57;4.15;;;5.20;99.90;;;;;;5004388;28;20115;-56
2022/11/05 00:29:30;;;;;;;12.43;3.55;;;5.20;99.90;;;;;;5002864;28;20478;-56
2022/11/05 00:31:56;;;;;;;15.82;4.10;;;;;;;;;;5008022;28;20041;-57
2022/11/05 00:34:21;;;;;;;19.08;4.85;;;5.30;99.90;;;;;;5007204;28;20041;-57
2022/11/05 00:36:48;;;;;;;11.52;3.47;;;;;;;;;;5007242;28;20184;-57
2022/11/05 00:39:14;;;;;;;13.52;3.47;;;;;;;;;;5007542;28;20049;-57
2022/11/05 00:41:40;;;;;;;10.57;3.33;;;;;;;;;;5005746;28;20052;-56
2022/11/05 00:49:28;;;;;;;13.30;3.08;;;;;;;;;;5004637;28;20716;-57
2022/11/05 00:49:36;;;;;;;14.85;4.15;;;;;;;;;;5003809;28;20511;-56
2022/11/05 00:54:46;;;;;;;13.00;3.25;;;5.30;99.90;;;;;;5003405;28;20056;-57
2022/11/05 00:57:12;;;;;;;14.48;2.83;;;5.40;99.90;;;;;;5007642;28;20054;-57
2022/11/05 00:59:37;;;;;;;13.02;3.05;;;5.50;99.90;;;;;;5007860;28;20038;-56
2022/11/05 01:02:03;;;;;;;8.90;2.85;;;5.50;99.90;;;;;;5003046;28;20328;-56
2022/11/05 01:04:29;;;;;;;25.83;5.03;;;5.60;99.90;;;;;;5007706;28;20046;-56
2022/11/05 01:06:55;;;;;;;9.55;2.45;;;;;;;;;;5006379;28;20171;-56
2022/11/05 01:09:21;;;;;;;8.45;2.78;;;;;;;;;;5006585;28;20049;-56
2022/11/05 01:11:47;;;;;;;17.05;3.38;;;5.80;99.90;;;;;;5005422;28;20191;-57
2022/11/05 01:14:17;;;;;;;13.02;3.65;;;5.90;99.90;;;;;;5007773;28;20457;-57
2022/11/05 01:16:44;;;;;;;13.80;4.18;;;5.90;99.90;;;;;;5009190;28;20056;-57
2022/11/05 01:19:10;;;;;;;9.35;2.67;;;5.90;99.90;;;;;;5005353;28;20059;-57
2022/11/05 01:21:36;;;;;;;9.40;2.58;;;5.80;99.90;;;;;;5006285;28;20033;-57
2022/11/05 01:24:03;;;;;;;10.45;2.60;;;5.80;99.90;;;;;;5001213;28;20563;-56
2022/11/05 01:26:28;;;;;;;10.25;2.55;;;5.60;99.90;;;;;;5005666;28;20049;-56
2022/11/05 01:28:56;;;;;;;10.95;2.28;;;5.60;99.90;;;;;;5002324;28;20250;-56
2022/11/05 01:31:23;;;;;;;10.95;2.22;;;5.60;99.90;;;;;;5004783;28;20049;-56
2022/11/05 01:33:49;;;;;;;16.90;3.38;;;5.70;99.90;;;;;;5002742;28;20046;-56
2022/11/05 01:36:15;;;;;;;9.55;2.35;;;;;;;;;;5005194;28;21044;-57
2022/11/05 01:38:42;;;;;;;10.48;2.03;;;;;;;;;;5005316;28;20066;-57
2022/11/05 01:41:08;;;;;;;9.43;2.10;;;;;;;;;;5003605;28;20048;-57
2022/11/05 01:43:48;;;;;;;9.00;2.00;;;5.50;99.90;;;;;;5004626;28;20128;-56
2022/11/05 01:46:17;;;;;;;4.82;2.00;;;5.50;99.90;;;;;;5002091;28;20034;-56
2022/11/05 01:48:43;;;;;;;10.82;2.03;;;;;;;;;;5005685;28;20058;-57
2022/11/05 01:51:16;;;;;;;16.25;2.67;;;5.50;99.90;;;;;;5003438;28;20041;-57
2022/11/05 01:53:53;;;;;;;7.68;1.92;;;5.60;99.90;;;;;;5004180;28;20041;-56
2022/11/05 01:56:29;;;;;;;9.43;2.00;;;5.70;99.90;;;;;;5005027;28;20125;-57
2022/11/05 01:59:03;;;;;;;14.98;2.20;;;5.40;99.90;;;;;;5001952;28;21510;-57
2022/11/05 02:01:29;;;;;;;9.18;1.95;;;;;;;;;;5004219;28;20041;-56
2022/11/05 02:04:00;;;;;;;7.70;2.60;;;5.60;99.90;;;;;;5002669;28;20048;-57
2022/11/05 02:06:27;;;;;;;8.85;2.05;;;5.70;99.90;;;;;;5006585;28;20042;-57
2022/11/05 02:09:08;;;;;;;9.88;1.95;;;5.40;99.90;;;;;;5002355;28;20042;-56
2022/11/05 02:11:34;;;;;;;11.57;1.95;;;;;;;;;;5004238;28;20132;-58
2022/11/05 02:14:00;;;;;;;7.13;2.08;;;;;;;;;;5005782;28;21305;-57
2022/11/05 02:16:26;;;;;;;11.00;2.35;;;;;;;;;;5005487;28;20081;-56
2022/11/05 02:18:59;;;;;;;6.93;2.20;;;5.70;99.90;;;;;;5003763;28;20145;-56
2022/11/05 02:21:49;;;;;;;11.85;2.75;;;5.70;99.90;;;;;;5005115;28;20738;-56
2022/11/05 02:24:51;;;;;;;10.75;1.88;;;5.70;99.90;;;;;;5005049;28;20065;-56
2022/11/05 02:27:40;;;;;;;9.63;2.10;;;5.80;99.90;;;;;;5005071;28;20054;-56
2022/11/05 02:30:24;;;;;;;10.15;1.90;;;6.00;99.90;;;;;;5002287;28;20119;-56
2022/11/05 02:33:09;;;;;;;11.00;3.05;;;6.00;99.90;;;;;;5002133;28;20204;-57
2022/11/05 02:36:03;;;;;;;12.82;2.35;;;6.20;99.90;;;;;;5001868;28;20471;-56
2022/11/05 02:39:07;;;;;;;6.78;1.80;;;6.00;99.90;;;;;;5040761;28;20053;-59
2022/11/05 02:41:47;;;;;;;10.35;1.92;;;6.00;99.90;;;;;;5003820;28;20052;-56
2022/11/05 02:44:32;;;;;;;5.25;1.85;;;6.20;99.90;;;;;;5003039;28;20034;-57
2022/11/05 02:47:07;;;;;;;6.03;2.00;;;6.10;99.90;;;;;;5000410;28;20093;-57
2022/11/05 02:49:51;;;;;;;6.32;1.95;;;6.10;99.90;;;;;;5001576;28;20134;-56
2022/11/05 02:52:29;;;;;;;9.60;2.00;;;6.20;99.90;;;;;;5002238;28;20492;-57
2022/11/05 02:55:19;;;;;;;8.18;1.90;;;6.20;99.90;;;;;;5001285;28;20040;-57
2022/11/05 02:57:46;;;;;;;7.00;2.00;;;6.10;99.90;;;;;;5004798;28;20768;-56
2022/11/05 03:00:37;;;;;;;8.38;2.55;;;6.10;99.90;;;;;;5004812;28;20046;-56
2022/11/05 03:03:04;;;;;;;6.55;1.85;;;6.20;99.90;;;;;;5005691;28;20057;-56
2022/11/05 03:05:42;;;;;;;6.63;1.98;;;6.10;99.90;;;;;;5002701;28;20225;-57
2022/11/05 03:08:16;;;;;;;9.35;2.00;;;6.30;99.90;;;;;;5002179;28;20050;-56
2022/11/05 03:10:59;;;;;;;7.40;2.03;;;6.10;99.90;;;;;;5004582;28;20049;-57
2022/11/05 03:14:03;;;;;;;8.02;2.10;;;6.20;99.90;;;;;;5001338;28;20505;-57
2022/11/05 03:16:41;;;;;;;6.22;2.20;;;6.00;99.90;;;;;;5027500;28;20053;-57
2022/11/05 03:19:28;;;;;;;10.90;2.50;;;6.10;99.90;;;;;;5002398;28;20084;-56
2022/11/05 03:22:17;;;;;;;11.57;2.95;;;5.80;99.90;;;;;;5003162;28;20077;-56
2022/11/05 03:24:51;;;;;;;7.20;2.30;;;5.90;99.90;;;;;;5002653;28;20056;-56
2022/11/05 03:27:28;;;;;;;12.52;2.35;;;6.00;99.90;;;;;;5002215;28;20119;-57
2022/11/05 03:30:00;;;;;;;8.52;2.35;;;5.90;99.90;;;;;;5000916;28;20088;-56
2022/11/05 03:32:31;;;;;;;8.85;2.28;;;6.10;99.90;;;;;;5003491;28;20045;-56
2022/11/05 03:35:05;;;;;;;7.07;2.28;;;6.10;99.90;;;;;;5001873;28;20057;-56
2022/11/05 03:37:37;;;;;;;6.25;1.92;;;6.00;99.90;;;;;;5005327;28;21038;-57
2022/11/05 03:40:07;;;;;;;5.78;1.73;;;6.10;99.90;;;;;;5004361;28;20045;-56
2022/11/05 03:42:37;;;;;;;10.00;2.45;;;6.10;99.90;;;;;;5002753;28;20983;-56
2022/11/05 03:45:13;;;;;;;8.40;2.45;;;6.10;99.90;;;;;;5000047;28;20109;-56
2022/11/05 03:47:41;;;;;;;5.18;1.60;;;6.10;99.90;;;;;;5002857;28;20519;-56
2022/11/05 03:50:12;;;;;;;5.18;1.88;;;6.20;99.90;;;;;;5000621;28;20323;-56
2022/11/05 03:52:58;;;;;;;9.38;2.08;;;6.00;99.90;;;;;;5002352;28;20072;-56
2022/11/05 03:55:34;;;;;;;9.60;2.00;;;6.20;99.90;;;;;;5001693;28;20230;-56
2022/11/05 03:58:02;;;;;;;7.78;1.90;;;6.20;99.90;;;;;;5001479;28;20187;-56
2022/11/05 04:00:28;;;;;;;7.55;2.20;;;6.20;99.90;;;;;;5002216;28;20129;-57
2022/11/05 04:02:54;;;;;;;6.70;2.05;;;5.90;99.90;;;;;;4999655;28;20049;-56
2022/11/05 04:05:20;;;;;;;9.18;1.92;;;6.20;99.90;;;;;;5000858;28;20616;-56
2022/11/05 04:13:22;;;;;;;11.82;2.00;;;6.10;99.90;;;;;;5002889;28;20041;-57
2022/11/05 04:13:32;;;;;;;5.57;1.80;;;6.20;99.90;;;;;;5004907;28;20056;-56
2022/11/05 04:18:43;;;;;;;8.70;2.10;;;6.30;99.90;;;;;;4970423;28;20121;-57
2022/11/05 04:24:07;;;;;;;8.98;2.08;;;6.20;99.90;;;;;;5006187;28;20045;-56
2022/11/05 04:26:34;;;;;;;6.13;2.03;;;6.30;99.90;;;;;;5001695;28;20038;-56
2022/11/05 04:31:44;;;;;;;9.10;2.30;;;;;;;;;;5000594;28;20046;-56
2022/11/05 04:34:10;;;;;;;11.85;1.98;;;6.10;99.90;;;;;;4998770;28;20042;-56
2022/11/05 04:36:36;;;;;;;6.40;2.20;;;6.10;99.90;;;;;;5002184;28;20037;-56
2022/11/05 04:39:01;;;;;;;6.20;2.22;;;5.90;99.90;;;;;;5003813;28;20038;-56
2022/11/05 04:41:27;;;;;;;9.38;2.97;;;6.00;99.90;;;;;;5001579;28;20048;-57
2022/11/05 04:43:53;;;;;;;8.52;2.63;;;;;;;;;;4999247;28;20056;-56
2022/11/05 04:46:20;;;;;;;10.95;2.70;;;;;;;;;;5003184;28;20522;-56
2022/11/05 04:48:46;;;;;;;10.60;2.60;;;6.10;99.90;;;;;;5000116;28;20046;-56
2022/11/05 04:51:11;;;;;;;11.15;3.30;;;6.00;99.90;;;;;;5005784;28;20046;-57
2022/11/05 04:53:37;;;;;;;11.20;3.08;;;6.10;99.90;;;;;;5002736;28;20034;-56
2022/11/05 04:56:16;;;;;;;8.32;3.97;;;6.20;99.90;;;;;;5003048;28;20098;-56
2022/11/05 04:58:42;;;;;;;9.15;3.85;;;;;;;;;;5004532;28;20491;-56
2022/11/05 05:01:13;;;;;;;8.60;4.57;;;6.70;99.90;;;;;;5002001;28;20045;-56
2022/11/05 05:03:39;;;;;;;11.50;5.13;;;6.20;99.90;;;;;;4999306;28;20067;-57
2022/11/05 05:06:05;;;;;;;11.52;4.80;;;6.30;99.90;;;;;;5002656;28;20049;-56
2022/11/05 05:08:31;;;;;;;11.85;4.85;;;6.40;99.90;;;;;;5002253;28;20053;-56
2022/11/05 05:11:06;;;;;;;7.72;4.18;;;6.40;99.90;;;;;;5005400;28;20037;-56
2022/11/05 05:13:32;;;;;;;10.45;4.03;;;6.50;99.90;;;;;;5003181;28;20065;-56
2022/11/05 05:15:58;;;;;;;12.90;4.18;;;6.40;99.90;;;;;;5000688;28;20041;-56
2022/11/05 05:18:25;;;;;;;18.13;5.07;;;6.60;99.90;;;;;;5006045;28;20095;-56
2022/11/05 05:23:36;;;;;;;8.48;4.03;;;6.70;99.90;;;;;;5004418;28;20096;-56
2022/11/05 05:26:02;;;;;;;10.57;4.60;;;6.30;99.90;;;;;;5006549;28;20145;-56
2022/11/05 05:28:28;;;;;;;12.52;4.10;;;;;;;;;;5006525;28;20080;-56
2022/11/05 05:30:58;;;;;;;11.20;5.10;;;6.60;99.90;;;;;;5017416;28;20696;-56
2022/11/05 05:33:24;;;;;;;17.92;6.72;;;;;;;;;;5004736;28;20052;-56
2022/11/05 05:35:50;;;;;;;9.43;4.68;;;6.50;99.90;;;;;;5003956;28;20045;-56
2022/11/05 05:38:15;;;;;;;13.60;5.50;;;6.60;99.90;;;;;;5006348;28;20102;-56
2022/11/05 05:40:41;;;;;;;12.05;5.35;;;6.40;99.90;;;;;;5004898;28;20041;-56
2022/11/05 05:43:07;;;;;;;16.88;6.03;;;6.50;99.90;;;;;;4998173;28;20045;-56
2022/11/05 05:45:34;;;;;;;11.85;5.43;;;6.50;99.90;;;;;;5004933;28;20150;-56
2022/11/05 05:48:01;;;;;;;11.35;5.60;;;6.50;99.90;;;;;;5005233;28;20465;-56
2022/11/05 05:50:26;;;;;;;11.13;5.78;;;6.60;99.90;;;;;;5006236;28;20049;-57
2022/11/05 05:52:52;;;;;;;13.55;5.55;;;6.70;99.90;;;;;;5004307;28;20097;-56
2022/11/05 05:55:18;;;;;;;11.70;5.45;;;6.90;99.90;;;;;;5006658;28;20499;-56
2022/11/05 05:57:44;;;;;;;11.57;4.90;;;6.80;99.90;;;;;;5005620;28;20328;-56
2022/11/05 06:00:10;;;;;;;10.88;4.97;;;6.90;99.90;;;;;;5004426;28;20055;-56
2022/11/05 06:02:35;;;;;;;12.10;5.55;;;6.80;99.90;;;;;;5007004;28;20054;-55
2022/11/05 06:05:01;;;;;;;10.10;4.55;;;7.00;99.90;;;;;;5028051;28;20110;-56
2022/11/05 06:07:27;;;;;;;10.27;4.35;;;6.70;99.90;;;;;;5006613;28;20492;-56
2022/11/05 06:09:53;;;;;;;9.32;4.22;;;6.80;99.90;;;;;;5003650;28;20514;-56
2022/11/05 06:12:18;;;;;;;9.43;4.03;;;6.80;99.90;;;;;;5005511;28;20495;-56
2022/11/05 06:14:44;;;;;;;9.98;3.80;;;;;;;;;;5005700;28;20049;-57
2022/11/05 06:17:10;;;;;;;7.85;3.63;;;6.70;99.90;;;;;;5002279;28;20057;-56
2022/11/05 06:19:35;;;;;;;7.57;3.38;;;6.50;99.90;;;;;;5006045;28;20069;-56
2022/11/05 06:22:01;;;;;;;9.35;3.90;;;6.60;99.90;;;;;;5000523;28;20443;-57
2022/11/05 06:24:27;;;;;;;8.90;4.90;;;6.50;99.90;;;;;;4998196;28;20580;-57
2022/11/05 06:26:52;;;;;;;9.10;3.90;;;6.40;99.90;;;;;;5000766;28;20049;-57
2022/11/05 06:29:18;;;;;;;10.27;4.43;;;6.40;99.90;;;;;;5002179;28;20045;-57
2022/11/05 06:31:44;;;;;;;8.80;4.72;;;6.30;99.90;;;;;;4999627;28;20117;-57
2022/11/05 06:34:09;;;;;;;11.23;4.82;;;6.40;99.90;;;;;;5004013;28;20041;-58
2022/11/05 06:36:35;;;;;;;11.43;4.63;;;6.20;99.90;;;;;;5004921;28;20114;-57
2022/11/05 06:39:01;;;;;;;12.48;5.50;;;;;;;;;;4995747;28;20705;-57
2022/11/05 06:41:27;;;;;;;11.68;6.05;;;6.20;99.90;;;;;;5015417;28;20546;-56
2022/11/05 06:43:52;;;;;;;12.18;5.55;;;6.00;99.90;;;;;;5003318;28;20136;-56
2022/11/05 06:46:18;;;;;;;9.70;5.45;;;5.90;99.90;;;;;;5001364;28;20094;-57
2022/11/05 06:48:44;;;;;;;11.18;5.63;;;6.00;99.90;;;;;;5004051;28;20045;-57
2022/11/05 06:51:10;;;;;;;11.48;5.38;;;6.00;99.90;;;;;;5002193;28;20105;-57
2022/11/05 06:53:36;;;;;;;11.30;6.25;;;;;;;;;;5002008;28;20098;-57
2022/11/05 06:56:04;;;;;;;11.50;5.57;;;6.10;99.90;;;;;;4999538;28;20393;-57
2022/11/05 06:58:31;;;;;;;9.50;5.40;;;6.10;99.90;;;;;;5003210;28;20049;-57
2022/11/05 07:01:07;;;;;;;14.45;5.43;;;5.90;99.90;;;;;;4997153;28;20053;-57
2022/11/05 07:03:33;;;;;;;11.35;5.47;;;5.90;99.90;;;;;;5001211;28;20511;-56
2022/11/05 07:06:00;;;;;;;9.32;5.47;;;5.90;99.90;;;;;;4956015;28;1184455;-57
2022/11/05 07:08:31;;;;;;;9.65;4.75;;;5.80;99.90;;;;;;5005334;28;20609;-57
2022/11/05 07:10:57;;;;;;;14.68;5.40;;;6.00;99.90;;;;;;4999028;28;20570;-57
2022/11/05 07:13:23;;;;;;;10.45;5.25;;;;;;;;;;5003778;28;20045;-57
2022/11/05 07:15:49;;;;;;;10.15;5.40;;;;;;;;;;5008403;28;20087;-57
2022/11/05 07:18:15;;;;;;;11.75;4.88;;;;;;;;;;5000798;28;20136;-57
2022/11/05 07:20:41;;;;;;;10.35;5.80;;;6.10;99.90;;;;;;5004213;28;20102;-57
2022/11/05 07:23:10;;;;;;;11.48;5.05;;;6.10;99.90;;;;;;4997429;28;20050;-57
2022/11/05 07:25:38;;;;;;;11.00;4.50;;;6.30;99.90;;;;;;4994737;28;20038;-57
2022/11/05 07:28:05;;;;;;;11.38;4.78;;;6.40;99.90;;;;;;4993815;28;20882;-57
2022/11/05 07:30:32;;;;;;;10.57;4.50;;;6.40;99.90;;;;;;4996310;28;20038;-57
2022/11/05 07:32:57;;;;;;;9.88;4.72;;;6.50;99.90;;;;;;4995415;28;20083;-57
2022/11/05 07:35:24;;;;;;;11.30;5.30;;;6.60;99.90;;;;;;5003221;28;20128;-57
2022/11/05 07:37:52;;;;;;;8.20;4.43;;;6.60;99.90;;;;;;5000452;28;20640;-56
2022/11/05 07:40:19;;;;;;;8.15;3.83;;;6.80;99.90;;;;;;4999156;28;20034;-56
2022/11/05 07:42:49;;;;;;;13.57;4.68;;;8.00;99.90;;;;;;5002517;28;20049;-57
2022/11/05 07:45:16;;;;;;;10.32;3.65;;;7.00;99.90;;;;;;5003611;28;20446;-57
2022/11/05 07:47:53;;;;;;;9.55;4.22;;;7.50;99.90;;;;;;5002309;28;20124;-58
2022/11/05 07:50:21;;;;;;;8.38;4.22;;;7.80;99.90;;;;;;5001519;28;20041;-57
2022/11/05 07:52:47;;;;;;;12.00;4.07;;;8.80;99.90;;;;;;5002744;28;20081;-57
2022/11/05 07:55:14;;;;;;;6.65;3.30;;;9.20;99.90;;;;;;5002178;28;20049;-57
2022/11/05 07:57:44;;;;;;;11.32;4.10;;;7.80;99.90;;;;;;5006460;28;20675;-57
2022/11/05 08:00:13;;;;;;;8.35;3.50;;;7.80;99.90;;;;;;5004828;28;20057;-57
2022/11/05 08:02:39;;;;;;;10.45;3.78;;;7.60;99.90;;;;;;5002776;28;20041;-57
2022/11/05 08:05:05;;;;;;;7.65;3.60;;;7.60;99.90;;;;;;5002692;28;20064;-57
2022/11/05 08:07:31;;;;;;;7.75;3.83;;;7.60;99.90;;;;;;5004632;28;20077;-57
2022/11/05 08:09:57;;;;;;;9.50;3.70;;;8.60;99.90;;;;;;5001218;28;20056;-56
2022/11/05 08:12:23;;;;;;;8.95;3.78;;;8.80;99.90;;;;;;5005986;28;20273;-57
2022/11/05 08:14:50;;;;;;;9.77;3.65;;;8.00;99.90;;;;;;5003032;28;20045;-56
2022/11/05 08:17:17;;;;;;;13.55;3.58;;;8.00;99.90;;;;;;5004502;28;20130;-56
2022/11/05 08:19:43;;;;;;;6.90;3.22;;;9.10;99.90;;;;;;5003066;28;20115;-56
2022/11/05 08:22:08;;;;;;;6.47;3.33;;;8.70;99.90;;;;;;5001832;28;20045;-57
2022/11/05 08:24:34;;;;;;;7.40;3.10;;;8.60;99.90;;;;;;5005435;28;20038;-57
2022/11/05 08:27:00;;;;;;;9.02;2.90;;;9.50;99.90;;;;;;5003873;28;20053;-56
2022/11/05 08:29:25;;;;;;;9.52;3.15;;;8.90;99.90;;;;;;5003409;28;20050;-57
2022/11/05 08:31:51;;;;;;;9.00;3.20;;;9.00;99.90;;;;;;5002663;28;20052;-57
2022/11/05 08:34:17;;;;;;;10.57;3.15;;;11.10;99.90;;;;;;4999551;28;20049;-56
2022/11/05 08:36:45;;;;;;;6.80;2.78;;;10.60;99.90;;;;;;5003752;28;20368;-57
2022/11/05 08:39:12;;;;;;;8.30;2.53;;;9.70;99.90;;;;;;5002348;28;20514;-57
2022/11/05 08:41:39;;;;;;;13.13;3.72;;;10.90;99.90;;;;;;5004531;28;20106;-57
2022/11/05 08:44:07;;;;;;;7.93;2.42;;;12.30;95.20;;;;;;5001036;28;20153;-57
2022/11/05 08:46:36;;;;;;;6.00;2.50;;;12.80;68.40;;;;;;5001983;28;20056;-57
2022/11/05 08:49:02;;;;;;;5.68;2.33;;;13.40;36.90;;;;;;5005742;28;20034;-57
2022/11/05 08:51:28;;;;;;;6.57;2.10;;;13.90;17.20;;;;;;5006272;28;20048;-57
2022/11/05 08:53:54;;;;;;;5.97;2.35;;;13.50;15.00;;;;;;5007885;28;20057;-57
2022/11/05 08:56:19;;;;;;;6.50;2.28;;;12.80;26.40;;;;;;5004140;28;20049;-57
2022/11/05 08:58:45;;;;;;;7.05;2.13;;;12.50;35.90;;;;;;5003142;28;20064;-57
2022/11/05 09:01:11;;;;;;;8.70;2.17;;;13.60;40.60;;;;;;4992315;28;20399;-57
2022/11/05 09:03:36;;;;;;;8.02;2.22;;;12.80;22.90;;;;;;5019029;28;20038;-57
2022/11/05 09:06:02;;;;;;;7.13;2.22;;;13.10;17.10;;;;;;5007749;28;20752;-56
2022/11/05 09:08:28;;;;;;;8.07;2.42;;;12.70;30.00;;;;;;5004357;28;20151;-56
2022/11/05 09:10:54;;;;;;;6.18;2.30;;;12.70;28.00;;;;;;5000237;28;20119;-57
2022/11/05 09:13:20;;;;;;;6.40;2.40;;;12.40;41.50;;;;;;5005838;28;20046;-57
2022/11/05 09:15:47;;;;;;;6.88;2.15;;;12.30;60.80;;;;;;5004366;28;20498;-56
2022/11/05 09:18:14;;;;;;;6.68;2.42;;;11.50;82.30;;;;;;5007545;28;20127;-57
2022/11/05 09:20:40;;;;;;;9.07;2.80;;;10.90;91.90;;;;;;5004472;28;20516;-57
2022/11/05 09:23:07;;;;;;;10.60;2.60;;;10.90;97.20;;;;;;5005102;28;20090;-57
2022/11/05 09:25:33;;;;;;;6.93;2.53;;;10.60;99.90;;;;;;5006640;28;20034;-57
2022/11/05 09:28:09;;;;;;;9.52;2.65;;;10.80;99.90;;;;;;5004707;28;20434;-57
2022/11/05 09:30:39;;;;;;;10.00;2.78;;;10.40;99.90;;;;;;5007733;28;20048;-57
2022/11/05 09:33:05;;;;;;;5.93;2.22;;;11.30;99.90;;;;;;5006441;28;20042;-57
2022/11/05 09:35:30;;;;;;;6.90;2.50;;;10.40;99.90;;;;;;5003298;28;20123;-57
2022/11/05 09:37:56;;;;;;;8.43;2.00;;;10.30;99.90;;;;;;5007970;28;20087;-57
2022/11/05 09:40:23;;;;;;;6.40;2.25;;;10.50;99.90;;;;;;5007726;28;20080;-57
2022/11/05 09:42:51;;;;;;;8.73;2.25;;;11.00;99.90;;;;;;5004931;28;20038;-57
2022/11/05 09:45:20;;;;;;;6.68;2.10;;;11.10;99.90;;;;;;5006302;28;20061;-56
2022/11/05 09:47:50;;;;;;;5.82;2.05;;;11.20;99.90;;;;;;5005240;28;20815;-57
2022/11/05 09:50:23;;;;;;;6.68;2.22;;;11.30;99.90;;;;;;5005616;28;20702;-57
2022/11/05 09:52:49;;;;;;;12.15;2.70;;;11.70;98.60;;;;;;5005245;28;20155;-57
2022/11/05 09:55:37;;;;;;;6.63;2.17;;;11.30;96.60;;;;;;5002759;28;20041;-57
2022/11/05 09:58:19;;;;;;;8.32;2.05;;;12.10;99.50;;;;;;5002108;28;20037;-57
2022/11/05 10:00:47;;;;;;;7.82;2.30;;;11.10;99.90;;;;;;5006046;28;20044;-57
2022/11/05 10:03:23;;;;;;;5.85;1.77;;;10.80;99.90;;;;;;5008015;28;20112;-57
2022/11/05 10:05:50;;;;;;;6.85;2.00;;;11.20;99.90;;;;;;5006011;28;20096;-57
2022/11/05 10:08:27;;;;;;;6.72;1.90;;;11.60;99.90;;;;;;5003926;28;20038;-57
2022/11/05 10:10:57;;;;;;;6.75;2.03;;;11.10;99.90;;;;;;5000868;28;20045;-57
2022/11/05 10:13:26;;;;;;;5.05;1.90;;;11.30;99.90;;;;;;5003641;28;20046;-57
2022/11/05 10:16:25;;;;;;;8.18;1.95;;;11.40;99.90;;;;;;5003333;28;20122;-57
2022/11/05 10:19:01;;;;;;;6.43;2.10;;;11.40;99.50;;;;;;5000824;28;20167;-57
2022/11/05 10:21:27;;;;;;;7.15;1.70;;;11.40;97.60;;;;;;5003022;28;20060;-57
2022/11/05 10:23:53;;;;;;;8.10;2.10;;;11.70;97.90;;;;;;5004559;28;20046;-57
2022/11/05 10:26:22;;;;;;;8.70;2.47;;;11.80;98.40;;;;;;5007206;28;20034;-57
2022/11/05 10:28:49;;;;;;;10.35;2.50;;;12.00;99.80;;;;;;5002195;28;20041;-57
2022/11/05 10:31:19;;;;;;;8.10;2.35;;;12.60;96.00;;;;;;5002649;28;20041;-56
2022/11/05 10:33:58;;;;;;;5.63;2.10;;;13.70;96.70;;;;;;5002696;28;20045;-56
2022/11/05 10:36:24;;;;;;;6.32;2.47;;;11.60;93.00;;;;;;5002527;28;20105;-57
2022/11/05 10:38:51;;;;;;;6.35;2.15;;;11.50;95.10;;;;;;5005579;28;20038;-57
2022/11/05 10:41:53;;;;;;;7.28;2.03;;;12.20;97.20;;;;;;5004716;28;20494;-57
2022/11/05 10:44:34;;;;;;;10.85;2.47;;;11.60;96.20;;;;;;5002266;28;20037;-57
2022/11/05 10:47:07;;;;;;;6.15;1.88;;;11.60;93.90;;;;;;5004871;28;20045;-57
2022/11/05 10:49:58;;;;;;;5.68;1.73;;;11.70;96.40;;;;;;5006928;28;20620;-57
2022/11/05 10:52:25;;;;;;;5.05;1.90;;;11.70;98.40;;;;;;5006924;28;20143;-57
2022/11/05 10:54:54;;;;;;;7.38;1.95;;;11.60;93.50;;;;;;5006615;28;21232;-57
2022/11/05 10:57:36;;;;;;;5.82;1.90;;;11.50;96.30;;;;;;5005153;28;20041;-57
2022/11/05 11:00:28;;;;;;;7.68;1.88;;;11.60;94.50;;;;;;5000001;28;20049;-57
2022/11/05 11:03:00;;;;;;;5.97;1.60;;;11.70;94.70;;;;;;5004080;28;20095;-57
2022/11/05 11:05:30;;;;;;;4.70;1.50;;;11.70;97.80;;;;;;4999134;28;20057;-57
2022/11/05 11:08:00;;;;;;;11.15;2.08;;;12.60;96.80;;;;;;5001626;28;20049;-57
2022/11/05 11:10:26;;;;;;;8.27;1.88;;;11.70;94.40;;;;;;5002917;28;20548;-57
2022/11/05 11:12:52;;;;;;;8.98;1.70;;;11.80;94.40;;;;;;5002394;28;20678;-57
2022/11/05 11:15:33;;;;;;;6.70;1.98;;;13.80;94.30;;;;;;5005587;28;20419;-57
2022/11/05 11:18:29;;;;;;;7.38;1.60;;;12.00;87.50;;;;;;5000416;28;20623;-56
2022/11/05 11:21:14;;;;;;;5.78;1.38;;;12.00;91.30;;;;;;5001291;28;20064;-57
2022/11/05 11:23:41;;;;;;;7.13;1.90;;;12.20;77.70;;;;;;5002692;28;20053;-57
2022/11/05 11:26:09;;;;;;;6.55;1.60;;;12.30;73.50;;;;;;5002759;28;20077;-58
2022/11/05 11:28:41;;;;;;;4.72;1.45;;;12.40;73.70;;;;;;5002270;28;20057;-57
2022/11/05 11:31:13;;;;;;;9.82;1.67;;;12.20;53.40;;;;;;4999869;28;20052;-57
2022/11/05 11:33:43;;;;;;;6.95;1.55;;;12.00;58.80;;;;;;4999759;28;20057;-57
2022/11/05 11:36:10;;;;;;;8.77;1.50;;;12.10;64.90;;;;;;4999766;28;20582;-57
2022/11/05 11:38:38;;;;;;;6.88;1.80;;;11.90;55.10;;;;;;5001268;28;20067;-56
2022/11/05 11:41:09;;;;;;;10.45;3.08;;;11.90;70.80;;;;;;5000898;28;20049;-57
2022/11/05 11:43:39;;;;;;;7.82;1.90;;;12.00;70.60;;;;;;5003958;28;20175;-57
2022/11/05 11:46:14;;;;;;;5.95;1.65;;;11.70;76.40;;;;;;5001278;28;20049;-57
2022/11/05 11:48:40;;;;;;;5.68;2.00;;;12.60;76.40;;;;;;5013958;28;20504;-57
2022/11/05 11:51:43;;;;;;;10.02;2.17;;;11.60;81.50;;;;;;5001470;28;20371;-57
2022/11/05 11:54:19;;;;;;;5.93;1.65;;;11.70;82.60;;;;;;5003856;28;20543;-57
2022/11/05 11:56:46;;;;;;;27.92;4.50;;;11.50;88.80;;;;;;5002904;28;20033;-57
2022/11/05 11:59:27;;;;;;;25.48;6.72;;;13.20;90.70;;;;;;5003047;28;20053;-57
2022/11/05 12:01:59;;;;;;;12.80;2.30;;;11.80;94.20;;;;;;5000940;28;20046;-57
2022/11/05 12:04:39;;;;;;;14.32;2.42;;;11.20;95.80;;;;;;5002134;28;20144;-57
2022/11/05 12:07:20;;;;;;;9.77;2.55;;;11.20;99.40;;;;;;5005368;28;20124;-57
2022/11/05 12:09:58;;;;;;;7.57;1.30;;;11.10;99.90;;;;;;5006695;28;20041;-57
2022/11/05 12:12:34;;;;;;;4.38;1.05;;;10.90;99.90;;;;;;5003780;28;20092;-57
2022/11/05 12:15:19;;;;;;;6.18;1.40;;;12.20;95.70;;;;;;5003647;28;20688;-57
2022/11/05 12:17:49;;;;;;;4.63;0.95;;;10.70;92.10;;;;;;5005209;28;20037;-57
2022/11/05 12:20:38;;;;;;;3.50;0.90;;;10.80;84.70;;;;;;5003275;28;20049;-57
2022/11/05 12:23:36;;;;;;;5.20;0.68;;;10.70;58.60;;;;;;5005322;28;20037;-57
2022/11/05 12:26:16;;;;;;;2.78;0.80;;;10.80;74.00;;;;;;5006192;28;20158;-57
2022/11/05 12:29:06;;;;;;;2.95;0.60;;;10.80;80.70;;;;;;5006034;28;20042;-57
2022/11/05 12:31:52;;;;;;;3.53;0.90;;;10.80;74.00;;;;;;5002701;28;20045;-56
2022/11/05 12:34:35;;;;;;;6.32;0.90;;;10.80;66.50;;;;;;4995200;28;20034;-57
2022/11/05 12:37:27;;;;;;;5.03;0.98;;;10.60;74.90;;;;;;5005126;28;20045;-56
2022/11/05 12:39:52;;;;;;;3.22;0.80;;;10.80;79.40;;;;;;5002487;28;20049;-56
2022/11/05 12:42:37;;;;;;;3.03;0.70;;;10.80;75.50;;;;;;5008154;28;20068;-56
2022/11/05 12:45:28;;;;;;;3.63;0.82;;;10.60;79.30;;;;;;4997100;28;20057;-56
2022/11/05 12:48:29;;;;;;;4.13;0.80;;;10.60;90.80;;;;;;5000909;28;20084;-56
2022/11/05 12:51:13;;;;;;;5.55;1.00;;;10.30;99.90;;;;;;4999540;28;20407;-54
2022/11/05 12:53:52;;;;;;;3.63;0.90;;;10.10;99.90;;;;;;5005485;28;20507;-56
2022/11/05 12:56:25;;;;;;;5.78;0.90;;;10.20;99.90;;;;;;5002881;28;20121;-55
2022/11/05 12:59:01;;;;;;;6.30;0.90;;;10.20;99.90;;;;;;5003196;28;20819;-54
2022/11/05 13:01:35;;;;;;;5.45;1.00;;;9.80;99.90;;;;;;5005914;28;20053;-56
2022/11/05 13:04:35;;;;;;;8.20;1.00;;;9.90;99.90;;;;;;5002909;28;20439;-55
2022/11/05 13:07:06;;;;;;;6.53;1.02;;;9.90;99.90;;;;;;5042235;28;20045;-55
2022/11/05 13:09:59;;;;;;;3.55;1.20;;;10.30;99.90;;;;;;5008487;28;20037;-55
2022/11/05 13:12:27;;;;;;;3.83;1.00;;;10.00;99.90;;;;;;5004144;28;20116;-54
2022/11/05 13:15:24;;;;;;;5.70;1.23;;;10.10;99.90;;;;;;5007837;28;20030;-56
2022/11/05 13:17:54;;;;;;;3.53;1.20;;;10.30;99.90;;;;;;5007116;28;20595;-56
2022/11/05 13:20:24;;;;;;;4.82;1.30;;;10.30;99.90;;;;;;5002411;28;20616;-56
2022/11/05 13:23:19;;;;;;;7.30;1.20;;;11.10;99.90;;;;;;5003538;28;20046;-55
2022/11/05 13:25:53;;;;;;;5.82;1.20;;;10.50;99.90;;;;;;5010479;28;20052;-56
2022/11/05 13:28:34;;;;;;;4.18;1.10;;;10.20;99.90;;;;;;5005798;28;20171;-57
2022/11/05 13:31:04;;;;;;;8.73;1.40;;;10.40;99.90;;;;;;5005912;28;20044;-56
2022/11/05 13:33:36;;;;;;;6.47;1.20;;;11.20;99.90;;;;;;5006618;28;20348;-56
2022/11/05 13:39:08;;;;;;;5.18;1.75;;;11.80;99.90;;;;;;5007719;28;20048;-56
2022/11/05 13:41:54;;;;;;;7.80;2.67;;;10.50;99.90;;;;;;5006825;28;20041;-55
2022/11/05 13:44:23;;;;;;;8.18;2.88;;;10.60;99.90;;;;;;5002334;28;20053;-56
2022/11/05 13:47:05;;;;;;;6.70;2.28;;;10.70;99.90;;;;;;5006278;28;20203;-55
2022/11/05 13:49:53;;;;;;;6.13;2.50;;;10.50;99.90;;;;;;5005058;28;20958;-55
2022/11/05 13:52:34;;;;;;;8.40;2.60;;;10.80;99.90;;;;;;5002584;28;20046;-49
2022/11/05 13:55:16;;;;;;;10.23;2.97;;;10.60;99.90;;;;;;5001618;28;20048;-49
2022/11/05 13:57:55;;;;;;;8.68;3.03;;;10.60;99.90;;;;;;5006851;28;20129;-51
2022/11/05 14:00:26;;;;;;;11.32;3.30;;;10.80;99.90;;;;;;5004757;28;20407;-50
2022/11/05 14:02:55;;;;;;;9.48;3.30;;;10.80;99.90;;;;;;5006585;28;20106;-54
2022/11/05 14:05:28;;;;;;;7.70;3.13;;;10.80;99.90;;;;;;5002746;28;20085;-51